sensor_id;sensor_type;location;lat;lon;timestamp;temperature;humidity
56268;DHT22;42175;46.930;9.532;2023-05-27T00:00:07;23.60;51.20
56268;DHT22;42175;46.930;9.532;2023-05-27T00:02:34;23.60;51.20
56268;DHT22;42175;46.930;9.532;2023-05-27T00:05:00;23.60;51.20
56268;DHT22;42175;46.930;9.532;2023-05-27T00:07:26;23.60;51.20
56268;DHT22;42175;46.930;9.532;2023-05-27T00:09:52;23.60;51.30
56268;DHT22;42175;46.930;9.532;2023-05-27T00:12:17;23.70;51.40
56268;DHT22;42175;46.930;9.532;2023-05-27T00:14:43;23.70;51.40
56268;DHT22;42175;46.930;9.532;2023-05-27T00:17:10;23.70;51.50
56268;DHT22;42175;46.930;9.532;2023-05-27T00:19:43;23.70;51.50
56268;DHT22;42175;46.930;9.532;2023-05-27T00:22:13;23.70;51.50
56268;DHT22;42175;46.930;9.532;2023-05-27T00:24:39;23.70;51.50
56268;DHT22;42175;46.930;9.532;2023-05-27T00:27:07;23.70;51.50
56268;DHT22;42175;46.930;9.532;2023-05-27T00:29:33;23.70;51.50
56268;DHT22;42175;46.930;9.532;2023-05-27T00:32:03;23.60;51.40
56268;DHT22;42175;46.930;9.532;2023-05-27T00:34:30;23.70;51.40
56268;DHT22;42175;46.930;9.532;2023-05-27T00:36:56;23.70;51.50
56268;DHT22;42175;46.930;9.532;2023-05-27T00:39:22;23.70;51.50
56268;DHT22;42175;46.930;9.532;2023-05-27T00:41:49;23.70;51.60
56268;DHT22;42175;46.930;9.532;2023-05-27T00:44:16;23.70;51.60
56268;DHT22;42175;46.930;9.532;2023-05-27T00:46:44;23.70;51.60
56268;DHT22;42175;46.930;9.532;2023-05-27T00:49:10;23.70;51.60
56268;DHT22;42175;46.930;9.532;2023-05-27T00:51:35;23.70;51.60
56268;DHT22;42175;46.930;9.532;2023-05-27T00:54:01;23.70;51.50
56268;DHT22;42175;46.930;9.532;2023-05-27T00:56:27;23.70;51.40
56268;DHT22;42175;46.930;9.532;2023-05-27T00:58:53;23.70;51.30
56268;DHT22;42175;46.930;9.532;2023-05-27T01:01:19;23.70;51.40
56268;DHT22;42175;46.930;9.532;2023-05-27T01:03:45;23.70;51.50
56268;DHT22;42175;46.930;9.532;2023-05-27T01:11:34;23.70;51.60
56268;DHT22;42175;46.930;9.532;2023-05-27T01:14:06;23.70;51.60
56268;DHT22;42175;46.930;9.532;2023-05-27T01:16:37;23.80;51.60
56268;DHT22;42175;46.930;9.532;2023-05-27T01:19:07;23.70;51.60
56268;DHT22;42175;46.930;9.532;2023-05-27T01:21:37;23.80;51.60
56268;DHT22;42175;46.930;9.532;2023-05-27T01:24:05;23.70;51.60
56268;DHT22;42175;46.930;9.532;2023-05-27T01:26:31;23.70;51.60
56268;DHT22;42175;46.930;9.532;2023-05-27T01:28:58;23.70;51.70
56268;DHT22;42175;46.930;9.532;2023-05-27T01:31:30;23.80;51.80
56268;DHT22;42175;46.930;9.532;2023-05-27T01:34:06;23.70;51.70
56268;DHT22;42175;46.930;9.532;2023-05-27T01:36:43;23.70;51.70
56268;DHT22;42175;46.930;9.532;2023-05-27T01:39:14;23.70;51.80
56268;DHT22;42175;46.930;9.532;2023-05-27T01:41:42;23.80;51.80
56268;DHT22;42175;46.930;9.532;2023-05-27T01:44:09;23.80;51.80
56268;DHT22;42175;46.930;9.532;2023-05-27T01:46:36;23.80;51.80
56268;DHT22;42175;46.930;9.532;2023-05-27T01:49:03;23.80;51.80
56268;DHT22;42175;46.930;9.532;2023-05-27T01:51:28;23.70;51.80
56268;DHT22;42175;46.930;9.532;2023-05-27T01:53:54;23.70;51.90
56268;DHT22;42175;46.930;9.532;2023-05-27T01:56:20;23.80;51.90
56268;DHT22;42175;46.930;9.532;2023-05-27T01:58:47;23.80;51.90
56268;DHT22;42175;46.930;9.532;2023-05-27T02:01:13;23.80;52.00
56268;DHT22;42175;46.930;9.532;2023-05-27T02:03:39;23.80;52.00
56268;DHT22;42175;46.930;9.532;2023-05-27T02:06:05;23.80;51.90
56268;DHT22;42175;46.930;9.532;2023-05-27T02:08:30;23.80;51.90
56268;DHT22;42175;46.930;9.532;2023-05-27T02:10:56;23.80;52.00
56268;DHT22;42175;46.930;9.532;2023-05-27T02:13:22;23.70;51.90
56268;DHT22;42175;46.930;9.532;2023-05-27T02:15:47;23.80;52.00
56268;DHT22;42175;46.930;9.532;2023-05-27T02:18:13;23.80;51.80
56268;DHT22;42175;46.930;9.532;2023-05-27T02:20:39;23.80;51.70
56268;DHT22;42175;46.930;9.532;2023-05-27T02:23:06;23.80;51.60
56268;DHT22;42175;46.930;9.532;2023-05-27T02:25:32;23.80;51.60
56268;DHT22;42175;46.930;9.532;2023-05-27T02:27:58;23.80;51.60
56268;DHT22;42175;46.930;9.532;2023-05-27T02:30:29;23.80;51.50
56268;DHT22;42175;46.930;9.532;2023-05-27T02:32:57;23.80;51.40
56268;DHT22;42175;46.930;9.532;2023-05-27T02:35:22;23.80;51.50
56268;DHT22;42175;46.930;9.532;2023-05-27T02:37:48;23.80;51.50
56268;DHT22;42175;46.930;9.532;2023-05-27T02:40:24;23.80;51.40
56268;DHT22;42175;46.930;9.532;2023-05-27T02:42:50;23.80;51.40
56268;DHT22;42175;46.930;9.532;2023-05-27T02:45:16;23.80;51.40
56268;DHT22;42175;46.930;9.532;2023-05-27T02:47:41;23.80;51.40
56268;DHT22;42175;46.930;9.532;2023-05-27T02:50:07;23.80;51.30
56268;DHT22;42175;46.930;9.532;2023-05-27T02:52:33;23.80;51.30
56268;DHT22;42175;46.930;9.532;2023-05-27T02:54:59;23.80;51.20
56268;DHT22;42175;46.930;9.532;2023-05-27T02:57:24;23.80;51.20
56268;DHT22;42175;46.930;9.532;2023-05-27T02:59:50;23.80;51.20
56268;DHT22;42175;46.930;9.532;2023-05-27T03:02:16;23.80;51.20
56268;DHT22;42175;46.930;9.532;2023-05-27T03:04:41;23.80;51.20
56268;DHT22;42175;46.930;9.532;2023-05-27T03:07:08;23.80;51.10
56268;DHT22;42175;46.930;9.532;2023-05-27T03:09:33;23.80;51.20
56268;DHT22;42175;46.930;9.532;2023-05-27T03:11:59;23.80;51.10
56268;DHT22;42175;46.930;9.532;2023-05-27T03:14:25;23.80;51.10
56268;DHT22;42175;46.930;9.532;2023-05-27T03:16:50;23.80;51.20
56268;DHT22;42175;46.930;9.532;2023-05-27T03:19:16;23.70;51.00
56268;DHT22;42175;46.930;9.532;2023-05-27T03:21:42;23.80;51.10
56268;DHT22;42175;46.930;9.532;2023-05-27T03:24:08;23.80;51.00
56268;DHT22;42175;46.930;9.532;2023-05-27T03:26:33;23.80;51.00
56268;DHT22;42175;46.930;9.532;2023-05-27T03:28:59;23.80;51.00
56268;DHT22;42175;46.930;9.532;2023-05-27T03:31:25;23.80;50.90
56268;DHT22;42175;46.930;9.532;2023-05-27T03:33:50;23.80;50.90
56268;DHT22;42175;46.930;9.532;2023-05-27T03:36:16;23.80;50.80
56268;DHT22;42175;46.930;9.532;2023-05-27T03:38:42;23.80;50.80
56268;DHT22;42175;46.930;9.532;2023-05-27T03:41:07;23.80;50.80
56268;DHT22;42175;46.930;9.532;2023-05-27T03:43:33;23.80;50.90
56268;DHT22;42175;46.930;9.532;2023-05-27T03:45:59;23.80;50.80
56268;DHT22;42175;46.930;9.532;2023-05-27T03:48:24;23.80;50.80
56268;DHT22;42175;46.930;9.532;2023-05-27T03:50:50;23.80;50.70
56268;DHT22;42175;46.930;9.532;2023-05-27T03:53:16;23.80;50.70
56268;DHT22;42175;46.930;9.532;2023-05-27T03:55:41;23.80;50.90
56268;DHT22;42175;46.930;9.532;2023-05-27T03:58:07;23.80;50.80
56268;DHT22;42175;46.930;9.532;2023-05-27T04:00:33;23.80;50.90
56268;DHT22;42175;46.930;9.532;2023-05-27T04:03:01;23.70;50.70
56268;DHT22;42175;46.930;9.532;2023-05-27T04:05:27;23.80;50.70
56268;DHT22;42175;46.930;9.532;2023-05-27T04:07:52;23.80;50.80
56268;DHT22;42175;46.930;9.532;2023-05-27T04:10:18;23.80;50.70
56268;DHT22;42175;46.930;9.532;2023-05-27T04:12:44;23.80;50.70
56268;DHT22;42175;46.930;9.532;2023-05-27T04:15:09;23.80;50.70
56268;DHT22;42175;46.930;9.532;2023-05-27T04:17:35;23.80;50.60
56268;DHT22;42175;46.930;9.532;2023-05-27T04:20:01;23.70;50.60
56268;DHT22;42175;46.930;9.532;2023-05-27T04:22:36;23.70;51.20
56268;DHT22;42175;46.930;9.532;2023-05-27T04:25:02;23.70;50.60
56268;DHT22;42175;46.930;9.532;2023-05-27T04:27:28;23.70;50.60
56268;DHT22;42175;46.930;9.532;2023-05-27T04:29:54;23.70;50.60
56268;DHT22;42175;46.930;9.532;2023-05-27T04:32:19;23.70;50.60
56268;DHT22;42175;46.930;9.532;2023-05-27T04:34:46;23.70;50.60
56268;DHT22;42175;46.930;9.532;2023-05-27T04:37:13;23.80;50.60
56268;DHT22;42175;46.930;9.532;2023-05-27T04:39:38;23.70;50.50
56268;DHT22;42175;46.930;9.532;2023-05-27T04:42:11;23.70;50.60
56268;DHT22;42175;46.930;9.532;2023-05-27T04:44:38;23.70;50.50
56268;DHT22;42175;46.930;9.532;2023-05-27T04:47:05;23.70;50.60
56268;DHT22;42175;46.930;9.532;2023-05-27T04:49:31;23.70;50.60
56268;DHT22;42175;46.930;9.532;2023-05-27T04:51:57;23.70;50.70
56268;DHT22;42175;46.930;9.532;2023-05-27T04:54:25;23.70;50.80
56268;DHT22;42175;46.930;9.532;2023-05-27T04:56:50;23.80;50.90
56268;DHT22;42175;46.930;9.532;2023-05-27T04:59:18;23.70;50.80
56268;DHT22;42175;46.930;9.532;2023-05-27T05:01:46;23.70;50.90
56268;DHT22;42175;46.930;9.532;2023-05-27T05:04:35;23.80;51.00
56268;DHT22;42175;46.930;9.532;2023-05-27T05:07:01;23.80;51.10
56268;DHT22;42175;46.930;9.532;2023-05-27T05:09:27;23.80;51.00
56268;DHT22;42175;46.930;9.532;2023-05-27T05:11:52;23.70;51.00
56268;DHT22;42175;46.930;9.532;2023-05-27T05:14:18;23.70;51.00
56268;DHT22;42175;46.930;9.532;2023-05-27T05:16:43;23.70;50.90
56268;DHT22;42175;46.930;9.532;2023-05-27T05:19:09;23.70;50.90
56268;DHT22;42175;46.930;9.532;2023-05-27T05:21:35;23.70;50.80
56268;DHT22;42175;46.930;9.532;2023-05-27T05:24:02;23.70;50.80
56268;DHT22;42175;46.930;9.532;2023-05-27T05:26:29;23.70;50.80
56268;DHT22;42175;46.930;9.532;2023-05-27T05:28:55;23.70;50.80
56268;DHT22;42175;46.930;9.532;2023-05-27T05:31:20;23.70;50.90
56268;DHT22;42175;46.930;9.532;2023-05-27T05:33:46;23.70;50.90
56268;DHT22;42175;46.930;9.532;2023-05-27T05:36:12;23.70;50.90
56268;DHT22;42175;46.930;9.532;2023-05-27T05:38:37;23.70;50.80
56268;DHT22;42175;46.930;9.532;2023-05-27T05:41:03;23.70;50.70
56268;DHT22;42175;46.930;9.532;2023-05-27T05:43:29;23.70;50.70
56268;DHT22;42175;46.930;9.532;2023-05-27T05:45:55;23.70;50.70
56268;DHT22;42175;46.930;9.532;2023-05-27T05:48:20;23.70;50.70
56268;DHT22;42175;46.930;9.532;2023-05-27T05:50:46;23.70;50.60
56268;DHT22;42175;46.930;9.532;2023-05-27T05:53:12;23.70;50.50
56268;DHT22;42175;46.930;9.532;2023-05-27T05:55:38;23.70;50.60
56268;DHT22;42175;46.930;9.532;2023-05-27T05:58:04;23.70;50.50
56268;DHT22;42175;46.930;9.532;2023-05-27T06:00:30;23.70;50.50
56268;DHT22;42175;46.930;9.532;2023-05-27T06:02:56;23.70;50.50
56268;DHT22;42175;46.930;9.532;2023-05-27T06:05:22;23.70;50.40
56268;DHT22;42175;46.930;9.532;2023-05-27T06:07:47;23.70;50.30
56268;DHT22;42175;46.930;9.532;2023-05-27T06:10:13;23.70;50.20
56268;DHT22;42175;46.930;9.532;2023-05-27T06:12:39;23.70;50.20
56268;DHT22;42175;46.930;9.532;2023-05-27T06:15:05;23.70;50.20
56268;DHT22;42175;46.930;9.532;2023-05-27T06:17:32;23.70;50.30
56268;DHT22;42175;46.930;9.532;2023-05-27T06:19:58;23.70;50.20
56268;DHT22;42175;46.930;9.532;2023-05-27T06:22:23;23.80;50.20
56268;DHT22;42175;46.930;9.532;2023-05-27T06:24:49;23.70;50.10
56268;DHT22;42175;46.930;9.532;2023-05-27T06:27:15;23.70;50.20
56268;DHT22;42175;46.930;9.532;2023-05-27T06:29:40;23.70;50.20
56268;DHT22;42175;46.930;9.532;2023-05-27T06:32:06;23.70;50.40
56268;DHT22;42175;46.930;9.532;2023-05-27T06:34:32;23.80;50.60
56268;DHT22;42175;46.930;9.532;2023-05-27T06:36:58;23.70;50.70
56268;DHT22;42175;46.930;9.532;2023-05-27T06:39:23;23.80;51.40
56268;DHT22;42175;46.930;9.532;2023-05-27T06:41:49;23.80;51.10
56268;DHT22;42175;46.930;9.532;2023-05-27T06:44:15;23.80;51.10
56268;DHT22;42175;46.930;9.532;2023-05-27T06:46:40;23.80;51.20
56268;DHT22;42175;46.930;9.532;2023-05-27T06:49:07;23.80;51.30
56268;DHT22;42175;46.930;9.532;2023-05-27T06:51:32;23.80;51.40
56268;DHT22;42175;46.930;9.532;2023-05-27T06:53:58;23.80;51.50
56268;DHT22;42175;46.930;9.532;2023-05-27T06:56:24;23.80;51.50
56268;DHT22;42175;46.930;9.532;2023-05-27T06:58:50;23.90;51.90
56268;DHT22;42175;46.930;9.532;2023-05-27T07:01:16;23.90;51.80
56268;DHT22;42175;46.930;9.532;2023-05-27T07:03:41;23.90;51.80
56268;DHT22;42175;46.930;9.532;2023-05-27T07:06:07;23.90;51.60
56268;DHT22;42175;46.930;9.532;2023-05-27T07:08:33;23.90;51.70
56268;DHT22;42175;46.930;9.532;2023-05-27T07:10:59;23.90;51.70
56268;DHT22;42175;46.930;9.532;2023-05-27T07:13:24;23.90;51.70
56268;DHT22;42175;46.930;9.532;2023-05-27T07:15:50;23.90;51.80
56268;DHT22;42175;46.930;9.532;2023-05-27T07:18:16;23.90;51.80
56268;DHT22;42175;46.930;9.532;2023-05-27T07:20:42;23.90;51.80
56268;DHT22;42175;46.930;9.532;2023-05-27T07:23:08;23.90;51.80
56268;DHT22;42175;46.930;9.532;2023-05-27T07:25:34;24.00;51.80
56268;DHT22;42175;46.930;9.532;2023-05-27T07:28:00;24.00;51.80
56268;DHT22;42175;46.930;9.532;2023-05-27T07:30:26;24.00;51.90
56268;DHT22;42175;46.930;9.532;2023-05-27T07:32:53;24.00;51.90
56268;DHT22;42175;46.930;9.532;2023-05-27T07:35:18;24.00;52.00
56268;DHT22;42175;46.930;9.532;2023-05-27T07:37:44;24.00;51.90
56268;DHT22;42175;46.930;9.532;2023-05-27T07:40:10;24.00;52.10
56268;DHT22;42175;46.930;9.532;2023-05-27T07:42:36;24.00;52.10
56268;DHT22;42175;46.930;9.532;2023-05-27T07:45:03;24.00;52.10
56268;DHT22;42175;46.930;9.532;2023-05-27T07:47:29;24.00;52.10
56268;DHT22;42175;46.930;9.532;2023-05-27T07:49:55;24.00;52.10
56268;DHT22;42175;46.930;9.532;2023-05-27T07:52:21;24.00;52.10
56268;DHT22;42175;46.930;9.532;2023-05-27T07:54:46;24.00;52.20
56268;DHT22;42175;46.930;9.532;2023-05-27T07:57:13;24.00;52.20
56268;DHT22;42175;46.930;9.532;2023-05-27T07:59:42;24.00;52.20
56268;DHT22;42175;46.930;9.532;2023-05-27T08:02:08;24.00;52.20
56268;DHT22;42175;46.930;9.532;2023-05-27T08:04:34;24.00;52.30
56268;DHT22;42175;46.930;9.532;2023-05-27T08:07:00;24.00;52.20
56268;DHT22;42175;46.930;9.532;2023-05-27T08:09:26;24.10;52.40
56268;DHT22;42175;46.930;9.532;2023-05-27T08:11:51;24.00;52.40
56268;DHT22;42175;46.930;9.532;2023-05-27T08:14:17;24.00;52.30
56268;DHT22;42175;46.930;9.532;2023-05-27T08:16:45;24.10;52.40
56268;DHT22;42175;46.930;9.532;2023-05-27T08:19:11;24.10;52.50
56268;DHT22;42175;46.930;9.532;2023-05-27T08:21:36;24.00;52.50
56268;DHT22;42175;46.930;9.532;2023-05-27T08:24:02;24.10;52.60
56268;DHT22;42175;46.930;9.532;2023-05-27T08:26:30;24.10;52.60
56268;DHT22;42175;46.930;9.532;2023-05-27T08:28:56;24.00;52.70
56268;DHT22;42175;46.930;9.532;2023-05-27T08:31:22;24.10;52.70
56268;DHT22;42175;46.930;9.532;2023-05-27T08:33:48;24.10;52.70
56268;DHT22;42175;46.930;9.532;2023-05-27T08:36:14;24.10;52.70
56268;DHT22;42175;46.930;9.532;2023-05-27T08:38:40;24.10;52.70
56268;DHT22;42175;46.930;9.532;2023-05-27T08:41:06;24.10;52.80
56268;DHT22;42175;46.930;9.532;2023-05-27T08:43:32;24.10;52.70
56268;DHT22;42175;46.930;9.532;2023-05-27T08:46:01;24.10;52.70
56268;DHT22;42175;46.930;9.532;2023-05-27T08:48:27;24.10;52.70
56268;DHT22;42175;46.930;9.532;2023-05-27T08:50:52;24.10;52.80
56268;DHT22;42175;46.930;9.532;2023-05-27T08:53:19;24.10;52.80
56268;DHT22;42175;46.930;9.532;2023-05-27T08:55:46;24.10;52.80
56268;DHT22;42175;46.930;9.532;2023-05-27T08:58:16;24.10;52.80
56268;DHT22;42175;46.930;9.532;2023-05-27T09:00:43;24.10;52.80
56268;DHT22;42175;46.930;9.532;2023-05-27T09:03:09;24.10;52.70
56268;DHT22;42175;46.930;9.532;2023-05-27T09:05:35;24.10;52.70
56268;DHT22;42175;46.930;9.532;2023-05-27T09:08:01;24.10;52.70
56268;DHT22;42175;46.930;9.532;2023-05-27T09:10:40;24.10;52.80
56268;DHT22;42175;46.930;9.532;2023-05-27T09:13:06;24.10;52.80
56268;DHT22;42175;46.930;9.532;2023-05-27T09:15:32;24.10;52.70
56268;DHT22;42175;46.930;9.532;2023-05-27T09:17:59;24.10;52.70
56268;DHT22;42175;46.930;9.532;2023-05-27T09:20:26;24.10;52.70
56268;DHT22;42175;46.930;9.532;2023-05-27T09:23:03;24.10;52.80
56268;DHT22;42175;46.930;9.532;2023-05-27T09:25:29;24.10;52.70
56268;DHT22;42175;46.930;9.532;2023-05-27T09:27:56;24.10;52.70
56268;DHT22;42175;46.930;9.532;2023-05-27T09:30:22;24.10;52.70
56268;DHT22;42175;46.930;9.532;2023-05-27T09:32:49;24.10;52.70
56268;DHT22;42175;46.930;9.532;2023-05-27T09:35:18;24.10;52.70
56268;DHT22;42175;46.930;9.532;2023-05-27T09:37:43;24.10;52.60
56268;DHT22;42175;46.930;9.532;2023-05-27T09:40:13;24.10;52.60
56268;DHT22;42175;46.930;9.532;2023-05-27T09:42:47;24.10;52.80
56268;DHT22;42175;46.930;9.532;2023-05-27T09:45:18;24.10;52.00
56268;DHT22;42175;46.930;9.532;2023-05-27T09:47:53;24.10;51.90
56268;DHT22;42175;46.930;9.532;2023-05-27T09:50:21;24.00;51.70
56268;DHT22;42175;46.930;9.532;2023-05-27T09:52:47;24.00;52.20
56268;DHT22;42175;46.930;9.532;2023-05-27T09:55:15;24.00;51.50
56268;DHT22;42175;46.930;9.532;2023-05-27T09:57:41;24.00;51.10
56268;DHT22;42175;46.930;9.532;2023-05-27T10:00:08;24.00;51.70
56268;DHT22;42175;46.930;9.532;2023-05-27T10:02:41;24.00;51.40
56268;DHT22;42175;46.930;9.532;2023-05-27T10:05:08;24.00;51.30
56268;DHT22;42175;46.930;9.532;2023-05-27T10:07:38;24.00;51.30
56268;DHT22;42175;46.930;9.532;2023-05-27T10:10:10;24.00;51.10
56268;DHT22;42175;46.930;9.532;2023-05-27T10:12:39;24.10;51.00
56268;DHT22;42175;46.930;9.532;2023-05-27T10:15:05;24.10;50.80
56268;DHT22;42175;46.930;9.532;2023-05-27T10:18:04;24.10;50.80
56268;DHT22;42175;46.930;9.532;2023-05-27T10:20:37;24.10;51.00
56268;DHT22;42175;46.930;9.532;2023-05-27T10:23:25;24.10;51.10
56268;DHT22;42175;46.930;9.532;2023-05-27T10:25:56;24.10;50.20
56268;DHT22;42175;46.930;9.532;2023-05-27T10:30:51;24.10;50.50
56268;DHT22;42175;46.930;9.532;2023-05-27T10:33:17;24.10;50.40
56268;DHT22;42175;46.930;9.532;2023-05-27T10:35:51;24.20;50.70
56268;DHT22;42175;46.930;9.532;2023-05-27T10:38:17;24.20;49.40
56268;DHT22;42175;46.930;9.532;2023-05-27T10:40:45;24.10;49.30
56268;DHT22;42175;46.930;9.532;2023-05-27T10:43:18;24.10;48.80
56268;DHT22;42175;46.930;9.532;2023-05-27T10:45:45;24.20;48.90
56268;DHT22;42175;46.930;9.532;2023-05-27T10:48:31;24.20;49.40
56268;DHT22;42175;46.930;9.532;2023-05-27T10:50:58;24.10;49.70
56268;DHT22;42175;46.930;9.532;2023-05-27T10:53:26;24.20;50.00
56268;DHT22;42175;46.930;9.532;2023-05-27T10:55:54;24.20;50.20
56268;DHT22;42175;46.930;9.532;2023-05-27T10:58:22;24.20;50.30
56268;DHT22;42175;46.930;9.532;2023-05-27T11:00:51;24.20;50.40
56268;DHT22;42175;46.930;9.532;2023-05-27T11:03:21;24.20;50.60
56268;DHT22;42175;46.930;9.532;2023-05-27T11:05:58;24.20;50.70
56268;DHT22;42175;46.930;9.532;2023-05-27T11:08:24;24.20;50.90
56268;DHT22;42175;46.930;9.532;2023-05-27T11:10:50;24.20;51.10
56268;DHT22;42175;46.930;9.532;2023-05-27T11:13:15;24.20;51.20
56268;DHT22;42175;46.930;9.532;2023-05-27T11:15:41;24.20;51.30
56268;DHT22;42175;46.930;9.532;2023-05-27T11:18:08;24.30;51.40
56268;DHT22;42175;46.930;9.532;2023-05-27T11:20:38;24.20;51.40
56268;DHT22;42175;46.930;9.532;2023-05-27T11:23:04;24.30;51.50
56268;DHT22;42175;46.930;9.532;2023-05-27T11:25:41;24.20;51.50
56268;DHT22;42175;46.930;9.532;2023-05-27T11:28:16;24.20;51.60
56268;DHT22;42175;46.930;9.532;2023-05-27T11:30:42;24.30;51.70
56268;DHT22;42175;46.930;9.532;2023-05-27T11:33:08;24.30;51.80
56268;DHT22;42175;46.930;9.532;2023-05-27T11:35:34;24.30;51.80
56268;DHT22;42175;46.930;9.532;2023-05-27T11:38:00;24.30;51.80
56268;DHT22;42175;46.930;9.532;2023-05-27T11:40:36;24.30;51.80
56268;DHT22;42175;46.930;9.532;2023-05-27T11:43:02;24.30;51.90
56268;DHT22;42175;46.930;9.532;2023-05-27T11:45:28;24.30;52.00
56268;DHT22;42175;46.930;9.532;2023-05-27T11:47:55;24.30;51.90
56268;DHT22;42175;46.930;9.532;2023-05-27T11:50:21;24.30;52.00
56268;DHT22;42175;46.930;9.532;2023-05-27T11:52:55;24.30;52.00
56268;DHT22;42175;46.930;9.532;2023-05-27T11:55:22;24.30;52.00
56268;DHT22;42175;46.930;9.532;2023-05-27T11:57:49;24.30;52.00
56268;DHT22;42175;46.930;9.532;2023-05-27T12:00:15;24.30;52.00
56268;DHT22;42175;46.930;9.532;2023-05-27T12:02:42;24.30;52.00
56268;DHT22;42175;46.930;9.532;2023-05-27T12:05:09;24.30;52.00
56268;DHT22;42175;46.930;9.532;2023-05-27T12:07:35;24.40;52.50
56268;DHT22;42175;46.930;9.532;2023-05-27T12:10:06;24.30;52.20
56268;DHT22;42175;46.930;9.532;2023-05-27T12:12:32;24.30;52.10
56268;DHT22;42175;46.930;9.532;2023-05-27T12:15:00;24.40;52.20
56268;DHT22;42175;46.930;9.532;2023-05-27T12:17:26;24.40;52.10
56268;DHT22;42175;46.930;9.532;2023-05-27T12:19:52;24.40;52.20
56268;DHT22;42175;46.930;9.532;2023-05-27T12:22:17;24.40;52.20
56268;DHT22;42175;46.930;9.532;2023-05-27T12:24:43;24.30;52.10
56268;DHT22;42175;46.930;9.532;2023-05-27T12:27:09;24.30;52.10
56268;DHT22;42175;46.930;9.532;2023-05-27T12:29:34;24.30;52.10
56268;DHT22;42175;46.930;9.532;2023-05-27T12:32:01;24.30;52.20
56268;DHT22;42175;46.930;9.532;2023-05-27T12:34:26;24.30;52.10
56268;DHT22;42175;46.930;9.532;2023-05-27T12:36:52;24.30;52.00
56268;DHT22;42175;46.930;9.532;2023-05-27T12:39:18;24.30;52.10
56268;DHT22;42175;46.930;9.532;2023-05-27T12:41:45;24.30;52.00
56268;DHT22;42175;46.930;9.532;2023-05-27T12:44:11;24.30;52.10
56268;DHT22;42175;46.930;9.532;2023-05-27T12:46:36;24.30;52.00
56268;DHT22;42175;46.930;9.532;2023-05-27T12:49:02;24.30;52.00
56268;DHT22;42175;46.930;9.532;2023-05-27T12:51:28;24.30;51.90
56268;DHT22;42175;46.930;9.532;2023-05-27T12:53:54;24.30;51.90
56268;DHT22;42175;46.930;9.532;2023-05-27T12:56:19;24.30;51.90
56268;DHT22;42175;46.930;9.532;2023-05-27T12:58:45;24.30;51.80
56268;DHT22;42175;46.930;9.532;2023-05-27T13:01:11;24.30;51.90
56268;DHT22;42175;46.930;9.532;2023-05-27T13:03:36;24.30;51.90
56268;DHT22;42175;46.930;9.532;2023-05-27T13:06:02;24.30;51.90
56268;DHT22;42175;46.930;9.532;2023-05-27T13:08:28;24.30;51.80
56268;DHT22;42175;46.930;9.532;2023-05-27T13:10:53;24.30;51.80
56268;DHT22;42175;46.930;9.532;2023-05-27T13:13:19;24.30;51.70
56268;DHT22;42175;46.930;9.532;2023-05-27T13:15:45;24.30;51.70
56268;DHT22;42175;46.930;9.532;2023-05-27T13:18:12;24.30;51.80
56268;DHT22;42175;46.930;9.532;2023-05-27T13:20:38;24.30;51.70
56268;DHT22;42175;46.930;9.532;2023-05-27T13:23:04;24.30;51.90
56268;DHT22;42175;46.930;9.532;2023-05-27T13:25:30;24.40;52.10
56268;DHT22;42175;46.930;9.532;2023-05-27T13:27:57;24.40;52.00
56268;DHT22;42175;46.930;9.532;2023-05-27T13:30:23;24.40;51.20
56268;DHT22;42175;46.930;9.532;2023-05-27T13:32:49;24.40;51.30
56268;DHT22;42175;46.930;9.532;2023-05-27T13:35:15;24.40;51.50
56268;DHT22;42175;46.930;9.532;2023-05-27T13:37:41;24.40;51.80
56268;DHT22;42175;46.930;9.532;2023-05-27T13:40:08;24.40;51.60
56268;DHT22;42175;46.930;9.532;2023-05-27T13:42:35;24.50;52.00
56268;DHT22;42175;46.930;9.532;2023-05-27T13:45:01;24.40;52.00
56268;DHT22;42175;46.930;9.532;2023-05-27T13:47:26;24.50;52.00
56268;DHT22;42175;46.930;9.532;2023-05-27T13:49:52;24.50;52.00
56268;DHT22;42175;46.930;9.532;2023-05-27T13:52:18;24.50;52.00
56268;DHT22;42175;46.930;9.532;2023-05-27T13:54:43;24.40;52.00
56268;DHT22;42175;46.930;9.532;2023-05-27T13:57:09;24.50;52.20
56268;DHT22;42175;46.930;9.532;2023-05-27T13:59:35;24.50;52.30
56268;DHT22;42175;46.930;9.532;2023-05-27T14:02:00;24.50;52.40
56268;DHT22;42175;46.930;9.532;2023-05-27T14:04:33;24.50;52.40
56268;DHT22;42175;46.930;9.532;2023-05-27T14:06:59;24.50;52.40
56268;DHT22;42175;46.930;9.532;2023-05-27T14:09:24;24.50;52.40
56268;DHT22;42175;46.930;9.532;2023-05-27T14:11:50;24.50;52.40
56268;DHT22;42175;46.930;9.532;2023-05-27T14:14:16;24.50;52.50
56268;DHT22;42175;46.930;9.532;2023-05-27T14:16:41;24.40;52.70
56268;DHT22;42175;46.930;9.532;2023-05-27T14:19:07;24.50;52.60
56268;DHT22;42175;46.930;9.532;2023-05-27T14:21:33;24.50;52.50
56268;DHT22;42175;46.930;9.532;2023-05-27T14:23:59;24.50;52.50
56268;DHT22;42175;46.930;9.532;2023-05-27T14:26:26;24.40;52.40
56268;DHT22;42175;46.930;9.532;2023-05-27T14:28:52;24.50;52.20
56268;DHT22;42175;46.930;9.532;2023-05-27T14:31:18;24.50;52.30
56268;DHT22;42175;46.930;9.532;2023-05-27T14:33:44;24.40;52.10
56268;DHT22;42175;46.930;9.532;2023-05-27T14:36:10;24.40;52.40
56268;DHT22;42175;46.930;9.532;2023-05-27T14:38:35;24.40;52.20
56268;DHT22;42175;46.930;9.532;2023-05-27T14:41:01;24.40;52.10
56268;DHT22;42175;46.930;9.532;2023-05-27T14:43:27;24.40;52.20
56268;DHT22;42175;46.930;9.532;2023-05-27T14:45:53;24.40;51.80
56268;DHT22;42175;46.930;9.532;2023-05-27T14:48:18;24.40;52.00
56268;DHT22;42175;46.930;9.532;2023-05-27T14:50:44;24.40;51.80
56268;DHT22;42175;46.930;9.532;2023-05-27T14:53:10;24.40;51.60
56268;DHT22;42175;46.930;9.532;2023-05-27T14:55:36;24.40;50.20
56268;DHT22;42175;46.930;9.532;2023-05-27T14:58:02;24.40;50.20
56268;DHT22;42175;46.930;9.532;2023-05-27T15:00:31;24.40;50.40
56268;DHT22;42175;46.930;9.532;2023-05-27T15:02:57;24.40;50.50
56268;DHT22;42175;46.930;9.532;2023-05-27T15:05:22;24.40;50.40
56268;DHT22;42175;46.930;9.532;2023-05-27T15:07:48;24.40;50.80
56268;DHT22;42175;46.930;9.532;2023-05-27T15:10:14;24.40;51.00
56268;DHT22;42175;46.930;9.532;2023-05-27T15:12:44;24.40;51.20
56268;DHT22;42175;46.930;9.532;2023-05-27T15:15:14;24.40;51.30
56268;DHT22;42175;46.930;9.532;2023-05-27T15:17:41;24.40;51.40
56268;DHT22;42175;46.930;9.532;2023-05-27T15:20:11;24.40;51.50
56268;DHT22;42175;46.930;9.532;2023-05-27T15:22:37;24.30;51.50
56268;DHT22;42175;46.930;9.532;2023-05-27T15:25:03;24.40;51.60
56268;DHT22;42175;46.930;9.532;2023-05-27T15:27:29;24.40;51.60
56268;DHT22;42175;46.930;9.532;2023-05-27T15:29:55;24.40;51.70
56268;DHT22;42175;46.930;9.532;2023-05-27T15:32:20;24.40;51.70
56268;DHT22;42175;46.930;9.532;2023-05-27T15:34:46;24.40;51.70